sensor_id;sensor_type;location;lat;lon;timestamp;temperature;humidity
5176;DHT22;2607;50.934;6.934;2023-05-10T00:01:21;13.50;99.90
5176;DHT22;2607;50.934;6.934;2023-05-10T00:03:47;13.50;99.90
5176;DHT22;2607;50.934;6.934;2023-05-10T00:06:12;13.50;99.90
5176;DHT22;2607;50.934;6.934;2023-05-10T00:08:38;13.60;99.90
5176;DHT22;2607;50.934;6.934;2023-05-10T00:11:04;13.50;99.90
5176;DHT22;2607;50.934;6.934;2023-05-10T00:13:29;13.60;99.90
5176;DHT22;2607;50.934;6.934;2023-05-10T00:15:55;13.60;99.90
5176;DHT22;2607;50.934;6.934;2023-05-10T00:18:20;13.50;99.90
5176;DHT22;2607;50.934;6.934;2023-05-10T00:20:46;13.60;99.90
5176;DHT22;2607;50.934;6.934;2023-05-10T00:23:12;13.50;99.90
5176;DHT22;2607;50.934;6.934;2023-05-10T00:25:37;13.50;99.90
5176;DHT22;2607;50.934;6.934;2023-05-10T00:28:03;13.50;99.90
5176;DHT22;2607;50.934;6.934;2023-05-10T00:30:29;13.50;99.90
5176;DHT22;2607;50.934;6.934;2023-05-10T00:32:54;13.50;99.90
5176;DHT22;2607;50.934;6.934;2023-05-10T00:35:20;13.60;99.90
5176;DHT22;2607;50.934;6.934;2023-05-10T00:37:46;13.60;99.90
5176;DHT22;2607;50.934;6.934;2023-05-10T00:40:12;13.60;99.90
5176;DHT22;2607;50.934;6.934;2023-05-10T00:42:38;13.60;99.90
5176;DHT22;2607;50.934;6.934;2023-05-10T00:45:04;13.60;99.90
5176;DHT22;2607;50.934;6.934;2023-05-10T00:47:30;13.60;99.90
5176;DHT22;2607;50.934;6.934;2023-05-10T00:49:56;13.60;99.90
5176;DHT22;2607;50.934;6.934;2023-05-10T00:52:22;13.60;99.90
5176;DHT22;2607;50.934;6.934;2023-05-10T00:54:50;13.60;99.90
5176;DHT22;2607;50.934;6.934;2023-05-10T00:57:16;13.60;99.90
5176;DHT22;2607;50.934;6.934;2023-05-10T00:59:42;13.60;99.90
5176;DHT22;2607;50.934;6.934;2023-05-10T01:02:08;13.60;99.90
5176;DHT22;2607;50.934;6.934;2023-05-10T01:04:34;13.60;99.90
5176;DHT22;2607;50.934;6.934;2023-05-10T01:07:00;13.60;99.90
5176;DHT22;2607;50.934;6.934;2023-05-10T01:09:26;13.70;99.90
5176;DHT22;2607;50.934;6.934;2023-05-10T01:11:53;13.60;99.90
5176;DHT22;2607;50.934;6.934;2023-05-10T01:14:20;13.70;99.90
5176;DHT22;2607;50.934;6.934;2023-05-10T01:16:47;13.70;99.90
5176;DHT22;2607;50.934;6.934;2023-05-10T01:19:24;13.60;99.90
5176;DHT22;2607;50.934;6.934;2023-05-10T01:33:01;13.60;99.90
5176;DHT22;2607;50.934;6.934;2023-05-10T01:35:46;13.60;99.90
5176;DHT22;2607;50.934;6.934;2023-05-10T01:38:28;13.60;99.90
5176;DHT22;2607;50.934;6.934;2023-05-10T01:43:28;13.60;99.90
5176;DHT22;2607;50.934;6.934;2023-05-10T01:46:03;13.60;99.90
5176;DHT22;2607;50.934;6.934;2023-05-10T01:48:58;13.60;99.90
5176;DHT22;2607;50.934;6.934;2023-05-10T01:51:29;13.60;99.90
5176;DHT22;2607;50.934;6.934;2023-05-10T01:54:01;13.60;99.90
5176;DHT22;2607;50.934;6.934;2023-05-10T01:56:29;13.60;99.90
5176;DHT22;2607;50.934;6.934;2023-05-10T01:58:56;13.60;99.90
5176;DHT22;2607;50.934;6.934;2023-05-10T02:01:22;13.60;99.90
5176;DHT22;2607;50.934;6.934;2023-05-10T02:03:51;13.60;99.90
5176;DHT22;2607;50.934;6.934;2023-05-10T02:06:18;13.60;99.90
5176;DHT22;2607;50.934;6.934;2023-05-10T02:08:45;13.60;99.90
5176;DHT22;2607;50.934;6.934;2023-05-10T02:11:13;13.60;99.90
5176;DHT22;2607;50.934;6.934;2023-05-10T02:13:39;13.60;99.90
5176;DHT22;2607;50.934;6.934;2023-05-10T02:16:05;13.60;99.90
5176;DHT22;2607;50.934;6.934;2023-05-10T02:18:32;13.60;99.90
5176;DHT22;2607;50.934;6.934;2023-05-10T02:20:59;13.60;99.90
5176;DHT22;2607;50.934;6.934;2023-05-10T02:23:26;13.60;99.90
5176;DHT22;2607;50.934;6.934;2023-05-10T02:25:52;13.60;99.90
5176;DHT22;2607;50.934;6.934;2023-05-10T02:28:19;13.60;99.90
5176;DHT22;2607;50.934;6.934;2023-05-10T02:30:47;13.60;99.90
5176;DHT22;2607;50.934;6.934;2023-05-10T02:33:13;13.50;99.90
5176;DHT22;2607;50.934;6.934;2023-05-10T02:35:39;13.50;99.90
5176;DHT22;2607;50.934;6.934;2023-05-10T02:38:06;13.50;99.90
5176;DHT22;2607;50.934;6.934;2023-05-10T02:40:33;13.50;99.90
5176;DHT22;2607;50.934;6.934;2023-05-10T02:43:01;13.50;99.90
5176;DHT22;2607;50.934;6.934;2023-05-10T02:45:30;13.50;99.90
5176;DHT22;2607;50.934;6.934;2023-05-10T02:47:56;13.50;99.90
5176;DHT22;2607;50.934;6.934;2023-05-10T02:50:25;13.40;99.90
5176;DHT22;2607;50.934;6.934;2023-05-10T02:52:55;13.40;99.90
5176;DHT22;2607;50.934;6.934;2023-05-10T02:55:25;13.50;99.90
5176;DHT22;2607;50.934;6.934;2023-05-10T02:57:56;13.40;99.90
5176;DHT22;2607;50.934;6.934;2023-05-10T03:00:25;13.40;99.90
5176;DHT22;2607;50.934;6.934;2023-05-10T03:02:50;13.40;99.90
5176;DHT22;2607;50.934;6.934;2023-05-10T03:05:16;13.40;99.90
5176;DHT22;2607;50.934;6.934;2023-05-10T03:07:42;13.40;99.90
5176;DHT22;2607;50.934;6.934;2023-05-10T03:10:08;13.40;99.90
5176;DHT22;2607;50.934;6.934;2023-05-10T03:15:42;13.40;99.90
5176;DHT22;2607;50.934;6.934;2023-05-10T03:18:22;13.40;99.90
5176;DHT22;2607;50.934;6.934;2023-05-10T03:20:50;13.40;99.90
5176;DHT22;2607;50.934;6.934;2023-05-10T03:23:27;13.40;99.90
5176;DHT22;2607;50.934;6.934;2023-05-10T03:25:55;13.40;99.90
5176;DHT22;2607;50.934;6.934;2023-05-10T03:28:21;13.40;99.90
5176;DHT22;2607;50.934;6.934;2023-05-10T03:30:47;13.40;99.90
5176;DHT22;2607;50.934;6.934;2023-05-10T03:33:13;13.40;99.90
5176;DHT22;2607;50.934;6.934;2023-05-10T03:35:39;13.40;99.90
5176;DHT22;2607;50.934;6.934;2023-05-10T03:38:05;13.40;99.90
5176;DHT22;2607;50.934;6.934;2023-05-10T03:40:30;13.40;99.90
5176;DHT22;2607;50.934;6.934;2023-05-10T03:42:58;13.40;99.90
5176;DHT22;2607;50.934;6.934;2023-05-10T03:45:24;13.40;99.90
5176;DHT22;2607;50.934;6.934;2023-05-10T03:47:49;13.40;99.90
5176;DHT22;2607;50.934;6.934;2023-05-10T03:50:15;13.40;99.90
5176;DHT22;2607;50.934;6.934;2023-05-10T03:52:40;13.50;99.90
5176;DHT22;2607;50.934;6.934;2023-05-10T03:55:06;13.40;99.90
5176;DHT22;2607;50.934;6.934;2023-05-10T03:57:32;13.50;99.90
5176;DHT22;2607;50.934;6.934;2023-05-10T03:59:58;13.40;99.90
5176;DHT22;2607;50.934;6.934;2023-05-10T04:02:23;13.50;99.90
5176;DHT22;2607;50.934;6.934;2023-05-10T04:04:49;13.50;99.90
5176;DHT22;2607;50.934;6.934;2023-05-10T04:07:14;13.40;99.90
5176;DHT22;2607;50.934;6.934;2023-05-10T04:09:40;13.50;99.90
5176;DHT22;2607;50.934;6.934;2023-05-10T04:12:06;13.50;99.90
5176;DHT22;2607;50.934;6.934;2023-05-10T04:14:31;13.50;99.90
5176;DHT22;2607;50.934;6.934;2023-05-10T04:16:57;13.50;99.90
5176;DHT22;2607;50.934;6.934;2023-05-10T04:19:23;13.50;99.90
5176;DHT22;2607;50.934;6.934;2023-05-10T04:21:48;13.50;99.90
5176;DHT22;2607;50.934;6.934;2023-05-10T04:24:14;13.50;99.90
5176;DHT22;2607;50.934;6.934;2023-05-10T04:26:40;13.50;99.90
5176;DHT22;2607;50.934;6.934;2023-05-10T04:29:05;13.50;99.90
5176;DHT22;2607;50.934;6.934;2023-05-10T04:31:31;13.50;99.90
5176;DHT22;2607;50.934;6.934;2023-05-10T04:33:56;13.50;99.90
5176;DHT22;2607;50.934;6.934;2023-05-10T04:36:22;13.50;99.90
5176;DHT22;2607;50.934;6.934;2023-05-10T04:38:48;13.50;99.90
5176;DHT22;2607;50.934;6.934;2023-05-10T04:41:13;13.50;99.90
5176;DHT22;2607;50.934;6.934;2023-05-10T04:43:39;13.50;99.90
5176;DHT22;2607;50.934;6.934;2023-05-10T04:46:05;13.50;99.90
5176;DHT22;2607;50.934;6.934;2023-05-10T04:48:31;13.50;99.90
5176;DHT22;2607;50.934;6.934;2023-05-10T04:50:56;13.50;99.90
5176;DHT22;2607;50.934;6.934;2023-05-10T04:53:22;13.40;99.90
5176;DHT22;2607;50.934;6.934;2023-05-10T04:55:48;13.40;99.90
5176;DHT22;2607;50.934;6.934;2023-05-10T04:58:14;13.40;99.90
5176;DHT22;2607;50.934;6.934;2023-05-10T05:00:40;13.40;99.90
5176;DHT22;2607;50.934;6.934;2023-05-10T05:03:05;13.40;99.90
5176;DHT22;2607;50.934;6.934;2023-05-10T05:05:31;13.40;99.90
5176;DHT22;2607;50.934;6.934;2023-05-10T05:07:56;13.40;99.90
5176;DHT22;2607;50.934;6.934;2023-05-10T05:10:22;13.40;99.90
5176;DHT22;2607;50.934;6.934;2023-05-10T05:12:48;13.40;99.90
5176;DHT22;2607;50.934;6.934;2023-05-10T05:15:13;13.50;99.90
5176;DHT22;2607;50.934;6.934;2023-05-10T05:17:40;13.50;99.90
5176;DHT22;2607;50.934;6.934;2023-05-10T05:20:06;13.50;99.90
5176;DHT22;2607;50.934;6.934;2023-05-10T05:22:32;13.50;99.90
5176;DHT22;2607;50.934;6.934;2023-05-10T05:24:58;13.50;99.90
5176;DHT22;2607;50.934;6.934;2023-05-10T05:27:24;13.50;99.90
5176;DHT22;2607;50.934;6.934;2023-05-10T05:29:54;13.50;99.90
5176;DHT22;2607;50.934;6.934;2023-05-10T05:32:20;13.50;99.90
5176;DHT22;2607;50.934;6.934;2023-05-10T05:34:46;13.50;99.90
5176;DHT22;2607;50.934;6.934;2023-05-10T05:37:15;13.50;99.90
5176;DHT22;2607;50.934;6.934;2023-05-10T05:39:41;13.50;99.90
5176;DHT22;2607;50.934;6.934;2023-05-10T05:42:08;13.50;99.90
5176;DHT22;2607;50.934;6.934;2023-05-10T05:44:34;13.50;99.90
5176;DHT22;2607;50.934;6.934;2023-05-10T05:46:59;13.50;99.90
5176;DHT22;2607;50.934;6.934;2023-05-10T05:49:25;13.50;99.90
5176;DHT22;2607;50.934;6.934;2023-05-10T05:51:50;13.50;99.90
5176;DHT22;2607;50.934;6.934;2023-05-10T05:54:16;13.50;99.90
5176;DHT22;2607;50.934;6.934;2023-05-10T05:56:41;13.50;99.90
5176;DHT22;2607;50.934;6.934;2023-05-10T05:59:07;13.50;99.90
5176;DHT22;2607;50.934;6.934;2023-05-10T06:01:33;13.50;99.90
5176;DHT22;2607;50.934;6.934;2023-05-10T06:03:59;13.50;99.90
5176;DHT22;2607;50.934;6.934;2023-05-10T06:06:24;13.50;99.90
5176;DHT22;2607;50.934;6.934;2023-05-10T06:08:50;13.50;99.90
5176;DHT22;2607;50.934;6.934;2023-05-10T06:11:15;13.50;99.90
5176;DHT22;2607;50.934;6.934;2023-05-10T06:13:41;13.50;99.90
5176;DHT22;2607;50.934;6.934;2023-05-10T06:16:07;13.50;99.90
5176;DHT22;2607;50.934;6.934;2023-05-10T06:18:33;13.50;99.90
5176;DHT22;2607;50.934;6.934;2023-05-10T06:20:58;13.50;99.90
5176;DHT22;2607;50.934;6.934;2023-05-10T06:23:24;13.50;99.90
5176;DHT22;2607;50.934;6.934;2023-05-10T06:25:51;13.50;99.90
5176;DHT22;2607;50.934;6.934;2023-05-10T06:28:16;13.60;99.90
5176;DHT22;2607;50.934;6.934;2023-05-10T06:30:42;13.60;99.90
5176;DHT22;2607;50.934;6.934;2023-05-10T06:33:07;13.60;99.90
5176;DHT22;2607;50.934;6.934;2023-05-10T06:35:33;13.60;99.90
5176;DHT22;2607;50.934;6.934;2023-05-10T06:37:59;13.60;99.90
5176;DHT22;2607;50.934;6.934;2023-05-10T06:40:24;13.60;99.90
5176;DHT22;2607;50.934;6.934;2023-05-10T06:42:50;13.60;99.90
5176;DHT22;2607;50.934;6.934;2023-05-10T06:45:16;13.70;99.90
5176;DHT22;2607;50.934;6.934;2023-05-10T06:47:42;13.70;99.90
5176;DHT22;2607;50.934;6.934;2023-05-10T06:50:08;13.70;99.90
5176;DHT22;2607;50.934;6.934;2023-05-10T06:52:34;13.70;99.90
5176;DHT22;2607;50.934;6.934;2023-05-10T06:55:00;13.70;99.90
5176;DHT22;2607;50.934;6.934;2023-05-10T06:57:26;13.70;99.90
5176;DHT22;2607;50.934;6.934;2023-05-10T06:59:52;13.70;99.90
5176;DHT22;2607;50.934;6.934;2023-05-10T07:02:17;13.60;99.90
5176;DHT22;2607;50.934;6.934;2023-05-10T07:04:43;13.60;99.90
5176;DHT22;2607;50.934;6.934;2023-05-10T07:07:09;13.60;99.90
5176;DHT22;2607;50.934;6.934;2023-05-10T07:09:34;13.60;99.90
5176;DHT22;2607;50.934;6.934;2023-05-10T07:12:00;13.60;99.90
5176;DHT22;2607;50.934;6.934;2023-05-10T07:14:27;13.60;99.90
5176;DHT22;2607;50.934;6.934;2023-05-10T07:16:53;13.60;99.90
5176;DHT22;2607;50.934;6.934;2023-05-10T07:19:18;13.60;99.90
5176;DHT22;2607;50.934;6.934;2023-05-10T07:21:45;13.60;99.90
5176;DHT22;2607;50.934;6.934;2023-05-10T07:24:10;13.60;99.90
5176;DHT22;2607;50.934;6.934;2023-05-10T07:26:36;13.70;99.90
5176;DHT22;2607;50.934;6.934;2023-05-10T07:29:01;13.70;99.90
5176;DHT22;2607;50.934;6.934;2023-05-10T07:31:27;13.70;99.90
5176;DHT22;2607;50.934;6.934;2023-05-10T07:33:53;13.80;99.90
5176;DHT22;2607;50.934;6.934;2023-05-10T07:36:18;13.80;99.90
5176;DHT22;2607;50.934;6.934;2023-05-10T07:38:44;13.80;99.90
5176;DHT22;2607;50.934;6.934;2023-05-10T07:41:11;13.90;99.90
5176;DHT22;2607;50.934;6.934;2023-05-10T07:43:37;13.80;99.90
5176;DHT22;2607;50.934;6.934;2023-05-10T07:46:02;13.90;99.90
5176;DHT22;2607;50.934;6.934;2023-05-10T07:48:28;13.90;99.90
5176;DHT22;2607;50.934;6.934;2023-05-10T07:50:53;13.90;99.90
5176;DHT22;2607;50.934;6.934;2023-05-10T07:53:19;13.80;99.90
5176;DHT22;2607;50.934;6.934;2023-05-10T07:55:50;13.80;99.90
5176;DHT22;2607;50.934;6.934;2023-05-10T07:58:15;13.80;99.90
5176;DHT22;2607;50.934;6.934;2023-05-10T08:00:41;13.80;99.90
5176;DHT22;2607;50.934;6.934;2023-05-10T08:03:06;13.80;99.90
5176;DHT22;2607;50.934;6.934;2023-05-10T08:05:32;13.90;99.90
5176;DHT22;2607;50.934;6.934;2023-05-10T08:07:57;13.90;99.90
5176;DHT22;2607;50.934;6.934;2023-05-10T08:10:24;13.90;99.90
5176;DHT22;2607;50.934;6.934;2023-05-10T08:12:50;13.90;99.90
5176;DHT22;2607;50.934;6.934;2023-05-10T08:15:16;14.00;99.90
5176;DHT22;2607;50.934;6.934;2023-05-10T08:17:41;14.00;99.90
5176;DHT22;2607;50.934;6.934;2023-05-10T08:20:08;14.10;99.90
5176;DHT22;2607;50.934;6.934;2023-05-10T08:22:34;14.20;99.90
5176;DHT22;2607;50.934;6.934;2023-05-10T08:24:59;14.30;99.90
5176;DHT22;2607;50.934;6.934;2023-05-10T08:27:25;14.30;99.90
5176;DHT22;2607;50.934;6.934;2023-05-10T08:29:50;14.40;99.90
5176;DHT22;2607;50.934;6.934;2023-05-10T08:32:17;14.40;99.90
5176;DHT22;2607;50.934;6.934;2023-05-10T08:34:42;14.50;99.90
5176;DHT22;2607;50.934;6.934;2023-05-10T08:37:08;14.50;99.90
5176;DHT22;2607;50.934;6.934;2023-05-10T08:39:34;14.50;99.90
5176;DHT22;2607;50.934;6.934;2023-05-10T08:42:03;14.40;99.90
5176;DHT22;2607;50.934;6.934;2023-05-10T08:44:32;14.40;99.90
5176;DHT22;2607;50.934;6.934;2023-05-10T08:46:59;14.40;99.90
5176;DHT22;2607;50.934;6.934;2023-05-10T08:49:27;14.30;99.90
5176;DHT22;2607;50.934;6.934;2023-05-10T08:51:57;14.20;99.90
5176;DHT22;2607;50.934;6.934;2023-05-10T08:54:25;14.20;99.90
5176;DHT22;2607;50.934;6.934;2023-05-10T08:56:50;14.20;99.90
5176;DHT22;2607;50.934;6.934;2023-05-10T08:59:17;14.30;99.90
5176;DHT22;2607;50.934;6.934;2023-05-10T09:01:44;14.30;99.90
5176;DHT22;2607;50.934;6.934;2023-05-10T09:04:10;14.40;99.90
5176;DHT22;2607;50.934;6.934;2023-05-10T09:06:36;14.40;99.90
5176;DHT22;2607;50.934;6.934;2023-05-10T09:09:01;14.50;99.90
5176;DHT22;2607;50.934;6.934;2023-05-10T09:11:28;14.60;99.90
5176;DHT22;2607;50.934;6.934;2023-05-10T09:13:55;14.60;99.90
5176;DHT22;2607;50.934;6.934;2023-05-10T09:16:22;14.70;99.90
5176;DHT22;2607;50.934;6.934;2023-05-10T09:18:48;14.70;99.90
5176;DHT22;2607;50.934;6.934;2023-05-10T09:21:14;14.80;99.90
5176;DHT22;2607;50.934;6.934;2023-05-10T09:23:46;14.80;99.90
5176;DHT22;2607;50.934;6.934;2023-05-10T09:26:12;14.80;99.90
5176;DHT22;2607;50.934;6.934;2023-05-10T09:28:58;14.90;99.90
5176;DHT22;2607;50.934;6.934;2023-05-10T09:31:24;14.90;99.90
5176;DHT22;2607;50.934;6.934;2023-05-10T09:33:53;14.90;99.90
5176;DHT22;2607;50.934;6.934;2023-05-10T09:36:19;15.00;99.90
5176;DHT22;2607;50.934;6.934;2023-05-10T09:38:52;15.00;99.90
5176;DHT22;2607;50.934;6.934;2023-05-10T09:41:21;15.00;99.90
5176;DHT22;2607;50.934;6.934;2023-05-10T09:43:48;14.90;99.90
5176;DHT22;2607;50.934;6.934;2023-05-10T09:46:14;14.80;99.90
5176;DHT22;2607;50.934;6.934;2023-05-10T09:48:42;14.60;99.90
5176;DHT22;2607;50.934;6.934;2023-05-10T09:51:08;14.50;99.90
5176;DHT22;2607;50.934;6.934;2023-05-10T09:53:34;14.40;99.90
5176;DHT22;2607;50.934;6.934;2023-05-10T09:56:00;14.20;99.90
5176;DHT22;2607;50.934;6.934;2023-05-10T09:58:26;14.10;99.90
5176;DHT22;2607;50.934;6.934;2023-05-10T10:00:52;14.10;99.90
5176;DHT22;2607;50.934;6.934;2023-05-10T10:03:20;14.10;99.90
5176;DHT22;2607;50.934;6.934;2023-05-10T10:05:47;14.20;99.90
5176;DHT22;2607;50.934;6.934;2023-05-10T10:08:14;14.20;99.90
5176;DHT22;2607;50.934;6.934;2023-05-10T10:10:41;14.40;99.90
5176;DHT22;2607;50.934;6.934;2023-05-10T10:13:07;14.50;99.90
5176;DHT22;2607;50.934;6.934;2023-05-10T10:15:34;14.60;99.90
5176;DHT22;2607;50.934;6.934;2023-05-10T10:18:00;14.60;99.90
5176;DHT22;2607;50.934;6.934;2023-05-10T10:20:26;14.60;99.90
5176;DHT22;2607;50.934;6.934;2023-05-10T10:22:52;14.60;99.90
5176;DHT22;2607;50.934;6.934;2023-05-10T10:25:20;14.70;99.90
5176;DHT22;2607;50.934;6.934;2023-05-10T10:30:37;14.80;99.90
5176;DHT22;2607;50.934;6.934;2023-05-10T10:33:22;15.00;99.90
5176;DHT22;2607;50.934;6.934;2023-05-10T10:35:50;15.00;99.90
5176;DHT22;2607;50.934;6.934;2023-05-10T10:38:17;15.10;99.90
5176;DHT22;2607;50.934;6.934;2023-05-10T10:40:43;15.10;99.90
5176;DHT22;2607;50.934;6.934;2023-05-10T10:43:25;15.20;99.90
5176;DHT22;2607;50.934;6.934;2023-05-10T10:48:37;15.30;99.90
5176;DHT22;2607;50.934;6.934;2023-05-10T10:51:02;15.40;99.90
5176;DHT22;2607;50.934;6.934;2023-05-10T10:53:28;15.40;99.90
5176;DHT22;2607;50.934;6.934;2023-05-10T10:56:12;15.30;99.90
5176;DHT22;2607;50.934;6.934;2023-05-10T10:58:40;15.40;99.90
5176;DHT22;2607;50.934;6.934;2023-05-10T11:01:17;15.30;99.90
5176;DHT22;2607;50.934;6.934;2023-05-10T11:06:31;15.50;99.90
5176;DHT22;2607;50.934;6.934;2023-05-10T11:08:58;15.60;99.90
5176;DHT22;2607;50.934;6.934;2023-05-10T11:11:23;15.70;99.90
5176;DHT22;2607;50.934;6.934;2023-05-10T11:13:49;15.70;99.90
5176;DHT22;2607;50.934;6.934;2023-05-10T11:16:20;15.70;99.90
5176;DHT22;2607;50.934;6.934;2023-05-10T11:18:53;15.70;99.90
5176;DHT22;2607;50.934;6.934;2023-05-10T11:21:19;15.70;99.90
5176;DHT22;2607;50.934;6.934;2023-05-10T11:23:55;15.70;99.90
5176;DHT22;2607;50.934;6.934;2023-05-10T11:26:23;15.70;99.90
5176;DHT22;2607;50.934;6.934;2023-05-10T11:28:54;15.60;99.90
5176;DHT22;2607;50.934;6.934;2023-05-10T11:31:21;15.50;99.90
5176;DHT22;2607;50.934;6.934;2023-05-10T11:33:50;15.50;99.90
5176;DHT22;2607;50.934;6.934;2023-05-10T11:36:17;15.40;99.90
5176;DHT22;2607;50.934;6.934;2023-05-10T11:38:44;15.40;99.90
5176;DHT22;2607;50.934;6.934;2023-05-10T11:41:10;15.40;99.90
5176;DHT22;2607;50.934;6.934;2023-05-10T11:43:37;15.40;99.90
5176;DHT22;2607;50.934;6.934;2023-05-10T11:46:05;15.40;99.90
5176;DHT22;2607;50.934;6.934;2023-05-10T11:48:31;15.30;99.90
5176;DHT22;2607;50.934;6.934;2023-05-10T11:50:57;15.20;99.90
5176;DHT22;2607;50.934;6.934;2023-05-10T11:53:25;15.20;99.90
5176;DHT22;2607;50.934;6.934;2023-05-10T11:55:51;15.10;99.90
5176;DHT22;2607;50.934;6.934;2023-05-10T11:58:18;15.00;99.90
5176;DHT22;2607;50.934;6.934;2023-05-10T12:00:44;15.10;99.90
5176;DHT22;2607;50.934;6.934;2023-05-10T12:03:11;14.90;99.90
5176;DHT22;2607;50.934;6.934;2023-05-10T12:05:37;15.00;99.90
5176;DHT22;2607;50.934;6.934;2023-05-10T12:08:15;15.00;99.90
5176;DHT22;2607;50.934;6.934;2023-05-10T12:10:41;15.10;99.90
5176;DHT22;2607;50.934;6.934;2023-05-10T12:13:14;15.10;99.90
5176;DHT22;2607;50.934;6.934;2023-05-10T12:15:40;15.00;99.90
5176;DHT22;2607;50.934;6.934;2023-05-10T12:18:09;15.00;99.90
5176;DHT22;2607;50.934;6.934;2023-05-10T12:20:35;15.10;99.90
5176;DHT22;2607;50.934;6.934;2023-05-10T12:23:02;15.10;99.90
5176;DHT22;2607;50.934;6.934;2023-05-10T12:25:33;15.10;99.90
5176;DHT22;2607;50.934;6.934;2023-05-10T12:28:02;15.10;99.90
5176;DHT22;2607;50.934;6.934;2023-05-10T12:30:29;15.20;99.90
5176;DHT22;2607;50.934;6.934;2023-05-10T12:33:09;15.30;99.90
5176;DHT22;2607;50.934;6.934;2023-05-10T12:38:31;15.60;99.90
5176;DHT22;2607;50.934;6.934;2023-05-10T12:40:58;15.70;99.90
5176;DHT22;2607;50.934;6.934;2023-05-10T12:43:24;15.70;99.90
5176;DHT22;2607;50.934;6.934;2023-05-10T12:45:50;15.70;99.90
5176;DHT22;2607;50.934;6.934;2023-05-10T12:48:16;15.70;99.90
5176;DHT22;2607;50.934;6.934;2023-05-10T12:50:41;15.80;99.90
5176;DHT22;2607;50.934;6.934;2023-05-10T12:53:07;15.90;99.90
5176;DHT22;2607;50.934;6.934;2023-05-10T12:55:32;15.90;99.90
5176;DHT22;2607;50.934;6.934;2023-05-10T12:57:58;16.00;99.90
5176;DHT22;2607;50.934;6.934;2023-05-10T13:00:24;16.00;99.90
5176;DHT22;2607;50.934;6.934;2023-05-10T13:02:49;16.00;99.90
5176;DHT22;2607;50.934;6.934;2023-05-10T13:05:15;16.10;99.90
5176;DHT22;2607;50.934;6.934;2023-05-10T13:07:41;16.30;99.90
5176;DHT22;2607;50.934;6.934;2023-05-10T13:10:06;16.40;99.90
5176;DHT22;2607;50.934;6.934;2023-05-10T13:12:32;16.50;99.90
5176;DHT22;2607;50.934;6.934;2023-05-10T13:14:58;16.40;99.90
5176;DHT22;2607;50.934;6.934;2023-05-10T13:17:25;16.40;99.90
5176;DHT22;2607;50.934;6.934;2023-05-10T13:19:51;16.30;99.90
5176;DHT22;2607;50.934;6.934;2023-05-10T13:22:16;16.30;99.90
5176;DHT22;2607;50.934;6.934;2023-05-10T13:24:42;16.30;99.90
5176;DHT22;2607;50.934;6.934;2023-05-10T13:27:08;16.30;99.90
5176;DHT22;2607;50.934;6.934;2023-05-10T13:29:34;16.30;99.90
5176;DHT22;2607;50.934;6.934;2023-05-10T13:31:59;16.20;99.90
5176;DHT22;2607;50.934;6.934;2023-05-10T13:34:25;16.10;99.90
5176;DHT22;2607;50.934;6.934;2023-05-10T13:36:51;16.10;99.90
5176;DHT22;2607;50.934;6.934;2023-05-10T13:39:16;16.00;99.90
5176;DHT22;2607;50.934;6.934;2023-05-10T13:41:42;15.90;99.90
5176;DHT22;2607;50.934;6.934;2023-05-10T13:44:07;15.90;99.90
5176;DHT22;2607;50.934;6.934;2023-05-10T13:46:33;16.00;99.90
5176;DHT22;2607;50.934;6.934;2023-05-10T13:48:58;16.00;99.90
5176;DHT22;2607;50.934;6.934;2023-05-10T13:51:24;16.10;99.90
5176;DHT22;2607;50.934;6.934;2023-05-10T13:53:50;16.20;99.90
5176;DHT22;2607;50.934;6.934;2023-05-10T13:56:15;16.20;99.90
5176;DHT22;2607;50.934;6.934;2023-05-10T13:58:41;16.30;99.90
5176;DHT22;2607;50.934;6.934;2023-05-10T14:01:06;16.30;99.90
5176;DHT22;2607;50.934;6.934;2023-05-10T14:03:33;16.30;99.90
5176;DHT22;2607;50.934;6.934;2023-05-10T14:05:58;16.30;99.90
5176;DHT22;2607;50.934;6.934;2023-05-10T14:08:24;16.30;99.90
5176;DHT22;2607;50.934;6.934;2023-05-10T14:10:49;16.30;99.90
5176;DHT22;2607;50.934;6.934;2023-05-10T14:13:16;16.40;99.90
5176;DHT22;2607;50.934;6.934;2023-05-10T14:15:41;16.40;99.90
5176;DHT22;2607;50.934;6.934;2023-05-10T14:18:07;16.50;99.90
5176;DHT22;2607;50.934;6.934;2023-05-10T14:20:32;16.50;99.90
5176;DHT22;2607;50.934;6.934;2023-05-10T14:22:59;16.50;99.90
5176;DHT22;2607;50.934;6.934;2023-05-10T14:25:25;16.40;99.90
5176;DHT22;2607;50.934;6.934;2023-05-10T14:27:51;16.40;99.90
5176;DHT22;2607;50.934;6.934;2023-05-10T14:30:19;16.40;99.90
5176;DHT22;2607;50.934;6.934;2023-05-10T14:32:45;16.50;99.90
5176;DHT22;2607;50.934;6.934;2023-05-10T14:35:10;16.40;99.90
5176;DHT22;2607;50.934;6.934;2023-05-10T14:37:36;16.30;99.90
5176;DHT22;2607;50.934;6.934;2023-05-10T14:40:02;16.30;99.90
5176;DHT22;2607;50.934;6.934;2023-05-10T14:42:29;16.20;99.90
5176;DHT22;2607;50.934;6.934;2023-05-10T14:44:55;16.20;99.90
5176;DHT22;2607;50.934;6.934;2023-05-10T14:47:20;16.20;99.90
5176;DHT22;2607;50.934;6.934;2023-05-10T14:49:46;16.20;99.90
5176;DHT22;2607;50.934;6.934;2023-05-10T14:52:12;16.20;99.90
5176;DHT22;2607;50.934;6.934;2023-05-10T14:54:37;16.20;99.90
5176;DHT22;2607;50.934;6.934;2023-05-10T14:57:03;16.10;99.90
5176;DHT22;2607;50.934;6.934;2023-05-10T14:59:29;16.10;99.90
5176;DHT22;2607;50.934;6.934;2023-05-10T15:01:54;16.20;99.90
5176;DHT22;2607;50.934;6.934;2023-05-10T15:04:20;16.20;99.90
5176;DHT22;2607;50.934;6.934;2023-05-10T15:06:46;16.30;99.90
5176;DHT22;2607;50.934;6.934;2023-05-10T15:09:12;16.30;99.90
5176;DHT22;2607;50.934;6.934;2023-05-10T15:11:37;16.40;99.90
5176;DHT22;2607;50.934;6.934;2023-05-10T15:14:03;16.40;99.90
5176;DHT22;2607;50.934;6.934;2023-05-10T15:16:28;16.50;99.90
5176;DHT22;2607;50.934;6.934;2023-05-10T15:18:54;16.50;99.90
5176;DHT22;2607;50.934;6.934;2023-05-10T15:21:20;16.50;99.90
5176;DHT22;2607;50.934;6.934;2023-05-10T15:23:45;16.60;99.90
5176;DHT22;2607;50.934;6.934;2023-05-10T15:26:11;16.50;99.90
5176;DHT22;2607;50.934;6.934;2023-05-10T15:28:36;16.60;99.90
5176;DHT22;2607;50.934;6.934;2023-05-10T15:31:02;16.60;99.90
5176;DHT22;2607;50.934;6.934;2023-05-10T15:33:28;16.50;99.90
5176;DHT22;2607;50.934;6.934;2023-05-10T15:35:55;16.60;99.90
5176;DHT22;2607;50.934;6.934;2023-05-10T15:38:21;16.50;99.90
5176;DHT22;2607;50.934;6.934;2023-05-10T15:40:46;16.50;99.90
5176;DHT22;2607;50.934;6.934;2023-05-10T15:43:12;16.50;99.90
5176;DHT22;2607;50.934;6.934;2023-05-10T15:45:37;16.40;99.90
5176;DHT22;2607;50.934;6.934;2023-05-10T15:48:03;16.40;99.90
5176;DHT22;2607;50.934;6.934;2023-05-10T15:50:29;16.40;99.90
5176;DHT22;2607;50.934;6.934;2023-05-10T15:52:54;16.30;99.90
5176;DHT22;2607;50.934;6.934;2023-05-10T15:55:20;16.40;99.90
5176;DHT22;2607;50.934;6.934;2023-05-10T15:57:46;16.40;99.90
5176;DHT22;2607;50.934;6.934;2023-05-10T16:00:13;16.50;99.90
5176;DHT22;2607;50.934;6.934;2023-05-10T16:02:40;16.50;99.90
5176;DHT22;2607;50.934;6.934;2023-05-10T16:05:06;16.60;99.90
5176;DHT22;2607;50.934;6.934;2023-05-10T16:07:33;16.60;99.90
5176;DHT22;2607;50.934;6.934;2023-05-10T16:09:58;16.60;99.90
5176;DHT22;2607;50.934;6.934;2023-05-10T16:12:24;16.60;99.90
5176;DHT22;2607;50.934;6.934;2023-05-10T16:14:49;16.60;99.90
5176;DHT22;2607;50.934;6.934;2023-05-10T16:17:15;16.60;99.90
5176;DHT22;2607;50.934;6.934;2023-05-10T16:19:40;16.60;99.90
5176;DHT22;2607;50.934;6.934;2023-05-10T16:22:07;16.50;99.90
5176;DHT22;2607;50.934;6.934;2023-05-10T16:24:35;16.50;99.90
5176;DHT22;2607;50.934;6.934;2023-05-10T16:27:00;16.40;99.90